Kezdőlap
METAR-TAF:

METAR-TAF

Repülőterek :

Zaqatala, Azerbajdzsán

földrajzi szélesség: 41-33-44N, földrajzi hosszúság: 46-40-02E, magasság: 330 m

Jelenlegi meteorológiai megfigyelések

A jelentés 2 órával és 5 perccel ezelõtt készült, 21:00 UTC
Délkeleti szél 6 kt
Hőmérséklet 8°C
Páratartalom 81%
Légköri nyomás 1035 hPa
Látótávolság 10 km, vagy több
Borult 2400 lábon

METAR: UBBY 152100Z 14006KT 9999 OVC024 08/05 Q1035 R33/////// NOSIG RMK MT OBSC

Idő: 03:05 (23:05 UTC)

Előrejelzés

A jelentés 3 órával és 5 perccel ezelõtt készült, 20:00 UTC
Az előrejelzés 15-én 21 óra UTC és 16-én 06 óra UTC között érvényes
Különbözõ irányokból fújó szél 4 kt
Látótávolság 10 km, vagy több
Szórványos felhőzet 3000 lábon
Borult 6000 lábon

TAF: UBBY 152000Z 1521/1606 VRB04KT 9999 SCT030 OVC060

Meteorológiai megfigyelések és előrejelzések több, mint 4000 repülőtéren (METAR és TAF jelentéseket).

A térképen piros és sárga pontok jelzik az elérhető meteorológiai állomásokat.

Mozgassa az egeret a pont fölött, hogy megjelenjen az állomás neve.

Azután kattintson az időjárási megfigyelések és előrejelzések megtekintéséhez.

A térkép megváltoztatása: kattintson a fekete keresztel jelölt zöld gombra ráközelítéshez, a vonallal jelölt zöld gombra távolításhoz, vagy a zöld nyilakra a szomszédos térképek eléréséhez.


METAR-TAF: